sensor_id;sensor_type;location;lat;lon;timestamp;P1;durP1;ratioP1;P2;durP2;ratioP2
76065;SDS011;64763;48.928;8.474;2023-12-28T00:01:24;5.95;;;3.88;;
76065;SDS011;64763;48.928;8.474;2023-12-28T00:03:50;6.18;;;3.97;;
76065;SDS011;64763;48.928;8.474;2023-12-28T00:06:15;8.60;;;3.17;;
76065;SDS011;64763;48.928;8.474;2023-12-28T00:08:41;8.80;;;3.10;;
76065;SDS011;64763;48.928;8.474;2023-12-28T00:11:06;5.30;;;2.80;;
76065;SDS011;64763;48.928;8.474;2023-12-28T00:13:31;4.63;;;2.88;;
76065;SDS011;64763;48.928;8.474;2023-12-28T00:15:57;5.45;;;2.50;;
76065;SDS011;64763;48.928;8.474;2023-12-28T00:18:22;3.28;;;1.80;;
76065;SDS011;64763;48.928;8.474;2023-12-28T00:20:47;5.25;;;2.15;;
76065;SDS011;64763;48.928;8.474;2023-12-28T00:23:13;3.80;;;1.85;;
76065;SDS011;64763;48.928;8.474;2023-12-28T00:25:38;4.57;;;2.13;;
76065;SDS011;64763;48.928;8.474;2023-12-28T00:28:04;3.47;;;2.00;;
76065;SDS011;64763;48.928;8.474;2023-12-28T00:30:29;4.05;;;1.77;;
76065;SDS011;64763;48.928;8.474;2023-12-28T00:32:55;2.70;;;1.48;;
76065;SDS011;64763;48.928;8.474;2023-12-28T00:35:20;4.28;;;1.92;;
76065;SDS011;64763;48.928;8.474;2023-12-28T00:37:45;4.07;;;1.80;;
76065;SDS011;64763;48.928;8.474;2023-12-28T00:40:11;4.25;;;1.80;;
76065;SDS011;64763;48.928;8.474;2023-12-28T00:42:36;2.97;;;1.60;;
76065;SDS011;64763;48.928;8.474;2023-12-28T00:45:02;2.83;;;1.80;;
76065;SDS011;64763;48.928;8.474;2023-12-28T00:47:27;2.78;;;1.55;;
76065;SDS011;64763;48.928;8.474;2023-12-28T00:49:53;3.63;;;1.58;;
76065;SDS011;64763;48.928;8.474;2023-12-28T00:52:18;2.63;;;1.50;;
76065;SDS011;64763;48.928;8.474;2023-12-28T00:54:43;3.35;;;1.80;;
76065;SDS011;64763;48.928;8.474;2023-12-28T00:57:09;2.88;;;1.60;;
76065;SDS011;64763;48.928;8.474;2023-12-28T00:59:34;3.10;;;1.67;;
76065;SDS011;64763;48.928;8.474;2023-12-28T01:01:59;2.67;;;1.60;;
76065;SDS011;64763;48.928;8.474;2023-12-28T01:04:25;2.65;;;1.60;;
76065;SDS011;64763;48.928;8.474;2023-12-28T01:06:51;2.22;;;1.50;;
76065;SDS011;64763;48.928;8.474;2023-12-28T01:09:17;3.28;;;1.77;;
76065;SDS011;64763;48.928;8.474;2023-12-28T01:11:42;3.35;;;2.08;;
76065;SDS011;64763;48.928;8.474;2023-12-28T01:14:07;3.42;;;1.95;;
76065;SDS011;64763;48.928;8.474;2023-12-28T01:16:33;3.55;;;1.90;;
76065;SDS011;64763;48.928;8.474;2023-12-28T01:18:58;3.10;;;1.70;;
76065;SDS011;64763;48.928;8.474;2023-12-28T01:21:23;3.22;;;1.50;;
76065;SDS011;64763;48.928;8.474;2023-12-28T01:23:50;2.35;;;1.40;;
76065;SDS011;64763;48.928;8.474;2023-12-28T01:26:16;3.33;;;1.60;;
76065;SDS011;64763;48.928;8.474;2023-12-28T01:28:42;2.60;;;1.77;;
76065;SDS011;64763;48.928;8.474;2023-12-28T01:31:08;4.15;;;1.80;;
76065;SDS011;64763;48.928;8.474;2023-12-28T01:33:33;2.88;;;1.35;;
76065;SDS011;64763;48.928;8.474;2023-12-28T01:35:58;2.70;;;1.70;;
76065;SDS011;64763;48.928;8.474;2023-12-28T01:38:24;2.38;;;1.73;;
76065;SDS011;64763;48.928;8.474;2023-12-28T01:40:49;2.35;;;1.42;;
76065;SDS011;64763;48.928;8.474;2023-12-28T01:43:14;3.33;;;2.00;;
76065;SDS011;64763;48.928;8.474;2023-12-28T01:45:40;2.83;;;1.60;;
76065;SDS011;64763;48.928;8.474;2023-12-28T01:48:05;3.55;;;1.50;;
76065;SDS011;64763;48.928;8.474;2023-12-28T01:50:31;3.10;;;1.55;;
76065;SDS011;64763;48.928;8.474;2023-12-28T01:52:57;2.33;;;1.30;;
76065;SDS011;64763;48.928;8.474;2023-12-28T01:55:24;2.22;;;1.30;;
76065;SDS011;64763;48.928;8.474;2023-12-28T01:57:49;2.90;;;1.98;;
76065;SDS011;64763;48.928;8.474;2023-12-28T02:00:15;2.17;;;1.35;;
76065;SDS011;64763;48.928;8.474;2023-12-28T02:02:40;3.13;;;1.30;;
76065;SDS011;64763;48.928;8.474;2023-12-28T02:05:08;3.67;;;2.00;;
76065;SDS011;64763;48.928;8.474;2023-12-28T02:07:36;2.45;;;1.50;;
76065;SDS011;64763;48.928;8.474;2023-12-28T02:10:01;2.58;;;1.50;;
76065;SDS011;64763;48.928;8.474;2023-12-28T02:12:27;3.60;;;1.55;;
76065;SDS011;64763;48.928;8.474;2023-12-28T02:14:52;3.13;;;1.48;;
76065;SDS011;64763;48.928;8.474;2023-12-28T02:17:36;2.63;;;1.63;;
76065;SDS011;64763;48.928;8.474;2023-12-28T02:20:06;2.53;;;1.60;;
76065;SDS011;64763;48.928;8.474;2023-12-28T02:22:32;3.33;;;1.50;;
76065;SDS011;64763;48.928;8.474;2023-12-28T02:25:05;1.98;;;1.30;;
76065;SDS011;64763;48.928;8.474;2023-12-28T02:27:41;2.25;;;1.40;;
76065;SDS011;64763;48.928;8.474;2023-12-28T02:30:11;2.20;;;1.40;;
76065;SDS011;64763;48.928;8.474;2023-12-28T02:35:14;2.47;;;1.45;;
76065;SDS011;64763;48.928;8.474;2023-12-28T02:37:43;2.53;;;1.50;;
76065;SDS011;64763;48.928;8.474;2023-12-28T02:40:10;2.55;;;1.40;;
76065;SDS011;64763;48.928;8.474;2023-12-28T02:42:36;2.90;;;1.73;;
76065;SDS011;64763;48.928;8.474;2023-12-28T02:45:02;2.20;;;1.40;;
76065;SDS011;64763;48.928;8.474;2023-12-28T02:47:28;3.17;;;1.67;;
76065;SDS011;64763;48.928;8.474;2023-12-28T02:49:53;3.20;;;2.10;;
76065;SDS011;64763;48.928;8.474;2023-12-28T02:52:18;2.88;;;1.40;;
76065;SDS011;64763;48.928;8.474;2023-12-28T02:54:44;3.65;;;1.80;;
76065;SDS011;64763;48.928;8.474;2023-12-28T02:57:09;2.75;;;1.83;;
76065;SDS011;64763;48.928;8.474;2023-12-28T02:59:34;2.67;;;1.45;;
76065;SDS011;64763;48.928;8.474;2023-12-28T03:02:00;2.83;;;1.50;;
76065;SDS011;64763;48.928;8.474;2023-12-28T03:04:25;2.90;;;1.60;;
76065;SDS011;64763;48.928;8.474;2023-12-28T03:06:50;2.75;;;1.52;;
76065;SDS011;64763;48.928;8.474;2023-12-28T03:09:16;2.83;;;1.48;;
76065;SDS011;64763;48.928;8.474;2023-12-28T03:11:41;2.15;;;1.40;;
76065;SDS011;64763;48.928;8.474;2023-12-28T03:14:06;2.75;;;1.40;;
76065;SDS011;64763;48.928;8.474;2023-12-28T03:16:32;4.00;;;1.85;;
76065;SDS011;64763;48.928;8.474;2023-12-28T03:18:57;3.08;;;1.55;;
76065;SDS011;64763;48.928;8.474;2023-12-28T03:21:22;4.35;;;1.55;;
76065;SDS011;64763;48.928;8.474;2023-12-28T03:23:48;3.72;;;1.70;;
76065;SDS011;64763;48.928;8.474;2023-12-28T03:26:13;1.77;;;1.30;;
76065;SDS011;64763;48.928;8.474;2023-12-28T03:28:39;4.35;;;1.50;;
76065;SDS011;64763;48.928;8.474;2023-12-28T03:31:05;2.75;;;1.58;;
76065;SDS011;64763;48.928;8.474;2023-12-28T03:33:30;2.75;;;1.40;;
76065;SDS011;64763;48.928;8.474;2023-12-28T03:35:55;2.97;;;1.52;;
76065;SDS011;64763;48.928;8.474;2023-12-28T03:38:21;2.92;;;1.40;;
76065;SDS011;64763;48.928;8.474;2023-12-28T03:40:47;2.75;;;1.10;;
76065;SDS011;64763;48.928;8.474;2023-12-28T03:43:14;2.55;;;1.30;;
76065;SDS011;64763;48.928;8.474;2023-12-28T03:45:40;3.65;;;1.48;;
76065;SDS011;64763;48.928;8.474;2023-12-28T03:48:05;2.42;;;1.42;;
76065;SDS011;64763;48.928;8.474;2023-12-28T03:50:30;3.42;;;1.40;;
76065;SDS011;64763;48.928;8.474;2023-12-28T03:52:56;2.17;;;1.15;;
76065;SDS011;64763;48.928;8.474;2023-12-28T03:55:23;3.88;;;1.70;;
76065;SDS011;64763;48.928;8.474;2023-12-28T03:57:48;3.42;;;1.60;;
76065;SDS011;64763;48.928;8.474;2023-12-28T04:00:16;2.50;;;1.35;;
76065;SDS011;64763;48.928;8.474;2023-12-28T04:02:41;2.17;;;1.40;;
76065;SDS011;64763;48.928;8.474;2023-12-28T04:05:07;1.88;;;1.45;;
76065;SDS011;64763;48.928;8.474;2023-12-28T04:07:32;1.77;;;1.20;;
76065;SDS011;64763;48.928;8.474;2023-12-28T04:09:57;3.78;;;1.95;;
76065;SDS011;64763;48.928;8.474;2023-12-28T04:12:23;3.65;;;1.70;;
76065;SDS011;64763;48.928;8.474;2023-12-28T04:14:49;2.53;;;1.25;;
76065;SDS011;64763;48.928;8.474;2023-12-28T04:17:14;2.90;;;1.50;;
76065;SDS011;64763;48.928;8.474;2023-12-28T04:19:39;2.50;;;1.35;;
76065;SDS011;64763;48.928;8.474;2023-12-28T04:22:05;3.17;;;1.60;;
76065;SDS011;64763;48.928;8.474;2023-12-28T04:24:30;2.80;;;1.50;;
76065;SDS011;64763;48.928;8.474;2023-12-28T04:26:55;2.28;;;1.33;;
76065;SDS011;64763;48.928;8.474;2023-12-28T04:29:21;3.03;;;1.52;;
76065;SDS011;64763;48.928;8.474;2023-12-28T04:31:46;4.32;;;1.45;;
76065;SDS011;64763;48.928;8.474;2023-12-28T04:34:11;2.47;;;1.70;;
76065;SDS011;64763;48.928;8.474;2023-12-28T04:36:40;2.78;;;1.42;;
76065;SDS011;64763;48.928;8.474;2023-12-28T04:39:07;2.50;;;1.55;;
76065;SDS011;64763;48.928;8.474;2023-12-28T04:41:33;3.05;;;1.65;;
76065;SDS011;64763;48.928;8.474;2023-12-28T04:43:58;1.48;;;1.13;;
76065;SDS011;64763;48.928;8.474;2023-12-28T04:46:23;2.33;;;1.48;;
76065;SDS011;64763;48.928;8.474;2023-12-28T04:48:49;3.38;;;2.00;;
76065;SDS011;64763;48.928;8.474;2023-12-28T04:51:14;2.95;;;1.65;;
76065;SDS011;64763;48.928;8.474;2023-12-28T04:53:39;3.92;;;1.58;;
76065;SDS011;64763;48.928;8.474;2023-12-28T04:56:05;2.33;;;1.42;;
76065;SDS011;64763;48.928;8.474;2023-12-28T04:58:31;2.75;;;1.50;;
76065;SDS011;64763;48.928;8.474;2023-12-28T05:00:56;2.08;;;1.40;;
76065;SDS011;64763;48.928;8.474;2023-12-28T05:03:21;2.42;;;1.55;;
76065;SDS011;64763;48.928;8.474;2023-12-28T05:05:47;2.67;;;1.58;;
76065;SDS011;64763;48.928;8.474;2023-12-28T05:08:12;2.60;;;1.50;;
76065;SDS011;64763;48.928;8.474;2023-12-28T05:10:37;3.88;;;1.50;;
76065;SDS011;64763;48.928;8.474;2023-12-28T05:13:03;4.22;;;1.92;;
76065;SDS011;64763;48.928;8.474;2023-12-28T05:15:28;3.47;;;1.85;;
76065;SDS011;64763;48.928;8.474;2023-12-28T05:17:54;3.65;;;1.95;;
76065;SDS011;64763;48.928;8.474;2023-12-28T05:20:19;4.25;;;1.90;;
76065;SDS011;64763;48.928;8.474;2023-12-28T05:22:44;4.15;;;1.92;;
76065;SDS011;64763;48.928;8.474;2023-12-28T05:25:10;3.22;;;1.85;;
76065;SDS011;64763;48.928;8.474;2023-12-28T05:27:35;3.20;;;1.63;;
76065;SDS011;64763;48.928;8.474;2023-12-28T05:30:00;2.92;;;1.90;;
76065;SDS011;64763;48.928;8.474;2023-12-28T05:32:26;3.20;;;1.63;;
76065;SDS011;64763;48.928;8.474;2023-12-28T05:34:51;3.03;;;1.70;;
76065;SDS011;64763;48.928;8.474;2023-12-28T05:37:17;3.10;;;1.90;;
76065;SDS011;64763;48.928;8.474;2023-12-28T05:39:42;2.55;;;1.60;;
76065;SDS011;64763;48.928;8.474;2023-12-28T05:42:07;3.72;;;1.80;;
76065;SDS011;64763;48.928;8.474;2023-12-28T05:44:33;3.40;;;1.65;;
76065;SDS011;64763;48.928;8.474;2023-12-28T05:46:58;2.38;;;1.70;;
76065;SDS011;64763;48.928;8.474;2023-12-28T05:49:23;3.58;;;1.75;;
76065;SDS011;64763;48.928;8.474;2023-12-28T05:51:50;3.28;;;1.60;;
76065;SDS011;64763;48.928;8.474;2023-12-28T05:54:15;2.67;;;1.60;;
76065;SDS011;64763;48.928;8.474;2023-12-28T05:56:43;2.67;;;1.52;;
76065;SDS011;64763;48.928;8.474;2023-12-28T05:59:08;2.33;;;1.25;;
76065;SDS011;64763;48.928;8.474;2023-12-28T06:01:41;2.78;;;1.50;;
76065;SDS011;64763;48.928;8.474;2023-12-28T06:04:07;3.53;;;1.63;;
76065;SDS011;64763;48.928;8.474;2023-12-28T06:06:32;2.88;;;1.50;;
76065;SDS011;64763;48.928;8.474;2023-12-28T06:08:57;3.40;;;1.83;;
76065;SDS011;64763;48.928;8.474;2023-12-28T06:11:23;2.25;;;1.50;;
76065;SDS011;64763;48.928;8.474;2023-12-28T06:13:48;2.40;;;1.77;;
76065;SDS011;64763;48.928;8.474;2023-12-28T06:16:13;1.92;;;1.42;;
76065;SDS011;64763;48.928;8.474;2023-12-28T06:18:39;2.30;;;1.52;;
76065;SDS011;64763;48.928;8.474;2023-12-28T06:21:04;2.75;;;1.40;;
76065;SDS011;64763;48.928;8.474;2023-12-28T06:23:31;2.78;;;1.70;;
76065;SDS011;64763;48.928;8.474;2023-12-28T06:25:56;6.03;;;1.55;;
76065;SDS011;64763;48.928;8.474;2023-12-28T06:28:22;3.72;;;1.73;;
76065;SDS011;64763;48.928;8.474;2023-12-28T06:30:47;2.80;;;1.52;;
76065;SDS011;64763;48.928;8.474;2023-12-28T06:33:12;2.80;;;1.45;;
76065;SDS011;64763;48.928;8.474;2023-12-28T06:35:38;3.13;;;2.00;;
76065;SDS011;64763;48.928;8.474;2023-12-28T06:38:03;3.65;;;1.80;;
76065;SDS011;64763;48.928;8.474;2023-12-28T06:40:28;3.10;;;1.83;;
76065;SDS011;64763;48.928;8.474;2023-12-28T06:42:54;4.63;;;2.08;;
76065;SDS011;64763;48.928;8.474;2023-12-28T06:45:19;2.97;;;1.67;;
76065;SDS011;64763;48.928;8.474;2023-12-28T06:47:44;2.42;;;1.58;;
76065;SDS011;64763;48.928;8.474;2023-12-28T06:50:10;2.45;;;1.50;;
76065;SDS011;64763;48.928;8.474;2023-12-28T06:52:35;2.92;;;1.48;;
76065;SDS011;64763;48.928;8.474;2023-12-28T06:55:03;3.90;;;1.63;;
76065;SDS011;64763;48.928;8.474;2023-12-28T06:57:29;3.15;;;1.63;;
76065;SDS011;64763;48.928;8.474;2023-12-28T06:59:54;3.55;;;1.88;;
76065;SDS011;64763;48.928;8.474;2023-12-28T07:02:21;2.45;;;1.50;;
76065;SDS011;64763;48.928;8.474;2023-12-28T07:04:46;2.45;;;1.45;;
76065;SDS011;64763;48.928;8.474;2023-12-28T07:07:11;2.95;;;1.90;;
76065;SDS011;64763;48.928;8.474;2023-12-28T07:09:37;3.22;;;1.33;;
76065;SDS011;64763;48.928;8.474;2023-12-28T07:12:02;3.30;;;1.67;;
76065;SDS011;64763;48.928;8.474;2023-12-28T07:14:28;3.20;;;2.05;;
76065;SDS011;64763;48.928;8.474;2023-12-28T07:16:53;2.55;;;1.73;;
76065;SDS011;64763;48.928;8.474;2023-12-28T07:19:18;2.55;;;1.55;;
76065;SDS011;64763;48.928;8.474;2023-12-28T07:21:44;4.35;;;1.95;;
76065;SDS011;64763;48.928;8.474;2023-12-28T07:24:09;3.28;;;1.90;;
76065;SDS011;64763;48.928;8.474;2023-12-28T07:26:34;3.67;;;1.90;;
76065;SDS011;64763;48.928;8.474;2023-12-28T07:29:00;5.55;;;2.00;;
76065;SDS011;64763;48.928;8.474;2023-12-28T07:31:25;3.10;;;1.77;;
76065;SDS011;64763;48.928;8.474;2023-12-28T07:33:52;3.15;;;2.20;;
76065;SDS011;64763;48.928;8.474;2023-12-28T07:36:17;2.90;;;1.73;;
76065;SDS011;64763;48.928;8.474;2023-12-28T07:38:43;3.45;;;1.92;;
76065;SDS011;64763;48.928;8.474;2023-12-28T07:41:09;3.30;;;2.05;;
76065;SDS011;64763;48.928;8.474;2023-12-28T07:43:34;5.45;;;2.30;;
76065;SDS011;64763;48.928;8.474;2023-12-28T07:46:01;3.97;;;2.20;;
76065;SDS011;64763;48.928;8.474;2023-12-28T07:48:26;3.05;;;2.03;;
76065;SDS011;64763;48.928;8.474;2023-12-28T07:50:52;3.35;;;1.83;;
76065;SDS011;64763;48.928;8.474;2023-12-28T07:53:17;4.47;;;1.73;;
76065;SDS011;64763;48.928;8.474;2023-12-28T07:55:42;4.15;;;1.83;;
76065;SDS011;64763;48.928;8.474;2023-12-28T07:58:08;4.45;;;1.80;;
76065;SDS011;64763;48.928;8.474;2023-12-28T08:00:33;3.75;;;2.28;;
76065;SDS011;64763;48.928;8.474;2023-12-28T08:02:58;3.20;;;2.20;;
76065;SDS011;64763;48.928;8.474;2023-12-28T08:05:24;3.83;;;2.53;;
76065;SDS011;64763;48.928;8.474;2023-12-28T08:07:49;3.80;;;2.00;;
76065;SDS011;64763;48.928;8.474;2023-12-28T08:10:14;4.68;;;1.90;;
76065;SDS011;64763;48.928;8.474;2023-12-28T08:12:40;4.10;;;2.25;;
76065;SDS011;64763;48.928;8.474;2023-12-28T08:15:05;3.80;;;2.60;;
76065;SDS011;64763;48.928;8.474;2023-12-28T08:17:31;4.68;;;2.53;;
76065;SDS011;64763;48.928;8.474;2023-12-28T08:19:56;3.35;;;1.98;;
76065;SDS011;64763;48.928;8.474;2023-12-28T08:22:22;3.25;;;2.03;;
76065;SDS011;64763;48.928;8.474;2023-12-28T08:24:47;4.93;;;2.45;;
76065;SDS011;64763;48.928;8.474;2023-12-28T08:27:13;3.20;;;1.95;;
76065;SDS011;64763;48.928;8.474;2023-12-28T08:29:39;3.95;;;1.85;;
76065;SDS011;64763;48.928;8.474;2023-12-28T08:32:05;4.18;;;2.63;;
76065;SDS011;64763;48.928;8.474;2023-12-28T08:34:31;3.00;;;2.15;;
76065;SDS011;64763;48.928;8.474;2023-12-28T08:36:56;4.30;;;2.13;;
76065;SDS011;64763;48.928;8.474;2023-12-28T08:39:22;4.40;;;2.13;;
76065;SDS011;64763;48.928;8.474;2023-12-28T08:41:47;3.15;;;2.42;;
76065;SDS011;64763;48.928;8.474;2023-12-28T08:44:12;5.03;;;2.03;;
76065;SDS011;64763;48.928;8.474;2023-12-28T08:46:38;3.55;;;1.90;;
76065;SDS011;64763;48.928;8.474;2023-12-28T08:49:03;4.47;;;2.40;;
76065;SDS011;64763;48.928;8.474;2023-12-28T08:51:28;5.80;;;3.83;;
76065;SDS011;64763;48.928;8.474;2023-12-28T08:53:54;3.95;;;2.42;;
76065;SDS011;64763;48.928;8.474;2023-12-28T08:56:20;4.00;;;2.38;;
76065;SDS011;64763;48.928;8.474;2023-12-28T08:58:46;4.75;;;2.72;;
76065;SDS011;64763;48.928;8.474;2023-12-28T09:01:21;5.38;;;2.03;;
76065;SDS011;64763;48.928;8.474;2023-12-28T09:03:51;4.30;;;2.28;;
76065;SDS011;64763;48.928;8.474;2023-12-28T09:06:18;3.42;;;2.13;;
76065;SDS011;64763;48.928;8.474;2023-12-28T09:08:44;5.25;;;2.00;;
76065;SDS011;64763;48.928;8.474;2023-12-28T09:11:12;3.72;;;2.13;;
76065;SDS011;64763;48.928;8.474;2023-12-28T09:13:38;5.25;;;2.25;;
76065;SDS011;64763;48.928;8.474;2023-12-28T09:16:04;4.60;;;2.08;;
76065;SDS011;64763;48.928;8.474;2023-12-28T09:18:30;3.28;;;1.85;;
76065;SDS011;64763;48.928;8.474;2023-12-28T09:20:55;4.38;;;1.90;;
76065;SDS011;64763;48.928;8.474;2023-12-28T09:23:23;6.13;;;2.25;;
76065;SDS011;64763;48.928;8.474;2023-12-28T09:25:49;4.88;;;2.08;;
76065;SDS011;64763;48.928;8.474;2023-12-28T09:28:14;3.03;;;1.92;;
76065;SDS011;64763;48.928;8.474;2023-12-28T09:30:40;3.13;;;1.85;;
76065;SDS011;64763;48.928;8.474;2023-12-28T09:33:05;4.22;;;2.50;;
76065;SDS011;64763;48.928;8.474;2023-12-28T09:35:31;5.10;;;2.13;;
76065;SDS011;64763;48.928;8.474;2023-12-28T09:37:56;4.22;;;1.98;;
76065;SDS011;64763;48.928;8.474;2023-12-28T09:40:21;4.65;;;1.98;;
76065;SDS011;64763;48.928;8.474;2023-12-28T09:43:01;3.60;;;2.13;;
76065;SDS011;64763;48.928;8.474;2023-12-28T09:47:56;3.17;;;2.03;;
76065;SDS011;64763;48.928;8.474;2023-12-28T09:50:22;3.72;;;2.40;;
76065;SDS011;64763;48.928;8.474;2023-12-28T09:52:48;6.85;;;2.47;;
76065;SDS011;64763;48.928;8.474;2023-12-28T09:55:14;4.82;;;2.35;;
76065;SDS011;64763;48.928;8.474;2023-12-28T09:57:39;3.55;;;2.40;;
76065;SDS011;64763;48.928;8.474;2023-12-28T10:00:05;3.70;;;2.28;;
76065;SDS011;64763;48.928;8.474;2023-12-28T10:02:31;4.32;;;2.50;;
76065;SDS011;64763;48.928;8.474;2023-12-28T10:04:58;4.07;;;2.45;;
76065;SDS011;64763;48.928;8.474;2023-12-28T10:07:23;3.65;;;2.55;;
76065;SDS011;64763;48.928;8.474;2023-12-28T10:09:49;3.30;;;2.13;;
76065;SDS011;64763;48.928;8.474;2023-12-28T10:12:14;4.65;;;2.45;;
76065;SDS011;64763;48.928;8.474;2023-12-28T10:14:40;2.72;;;1.80;;
76065;SDS011;64763;48.928;8.474;2023-12-28T10:17:05;3.75;;;1.80;;
76065;SDS011;64763;48.928;8.474;2023-12-28T10:19:31;5.18;;;2.10;;
76065;SDS011;64763;48.928;8.474;2023-12-28T10:21:57;4.05;;;2.35;;
76065;SDS011;64763;48.928;8.474;2023-12-28T10:24:22;3.28;;;1.90;;
76065;SDS011;64763;48.928;8.474;2023-12-28T10:26:47;4.00;;;2.13;;
76065;SDS011;64763;48.928;8.474;2023-12-28T10:29:13;3.55;;;2.25;;
76065;SDS011;64763;48.928;8.474;2023-12-28T10:31:41;2.70;;;2.05;;
76065;SDS011;64763;48.928;8.474;2023-12-28T10:34:07;5.90;;;1.83;;
76065;SDS011;64763;48.928;8.474;2023-12-28T10:36:33;3.00;;;2.10;;
76065;SDS011;64763;48.928;8.474;2023-12-28T10:39:02;3.30;;;2.20;;
76065;SDS011;64763;48.928;8.474;2023-12-28T10:41:29;3.85;;;2.22;;
76065;SDS011;64763;48.928;8.474;2023-12-28T10:46:27;3.90;;;1.90;;
76065;SDS011;64763;48.928;8.474;2023-12-28T10:48:54;3.08;;;1.90;;
76065;SDS011;64763;48.928;8.474;2023-12-28T10:51:24;4.20;;;2.17;;
76065;SDS011;64763;48.928;8.474;2023-12-28T10:53:54;2.78;;;1.65;;
76065;SDS011;64763;48.928;8.474;2023-12-28T10:59:24;3.72;;;2.20;;
76065;SDS011;64763;48.928;8.474;2023-12-28T11:01:59;2.72;;;2.00;;
76065;SDS011;64763;48.928;8.474;2023-12-28T11:07:19;1.92;;;1.45;;
76065;SDS011;64763;48.928;8.474;2023-12-28T11:09:46;3.53;;;1.85;;
76065;SDS011;64763;48.928;8.474;2023-12-28T11:12:12;3.03;;;1.90;;
76065;SDS011;64763;48.928;8.474;2023-12-28T11:14:41;4.85;;;2.15;;
76065;SDS011;64763;48.928;8.474;2023-12-28T11:17:08;3.72;;;1.80;;
76065;SDS011;64763;48.928;8.474;2023-12-28T11:19:34;2.90;;;2.22;;
76065;SDS011;64763;48.928;8.474;2023-12-28T11:22:01;4.30;;;2.05;;
76065;SDS011;64763;48.928;8.474;2023-12-28T11:24:27;2.72;;;2.03;;
76065;SDS011;64763;48.928;8.474;2023-12-28T11:26:54;2.50;;;1.58;;
76065;SDS011;64763;48.928;8.474;2023-12-28T11:29:22;2.80;;;1.63;;
76065;SDS011;64763;48.928;8.474;2023-12-28T11:31:52;4.00;;;1.92;;
76065;SDS011;64763;48.928;8.474;2023-12-28T11:34:18;5.75;;;1.98;;
76065;SDS011;64763;48.928;8.474;2023-12-28T11:36:48;3.70;;;1.90;;
76065;SDS011;64763;48.928;8.474;2023-12-28T11:39:20;2.95;;;1.95;;
76065;SDS011;64763;48.928;8.474;2023-12-28T11:41:51;3.15;;;2.30;;
76065;SDS011;64763;48.928;8.474;2023-12-28T11:44:28;3.22;;;1.92;;
76065;SDS011;64763;48.928;8.474;2023-12-28T11:46:53;3.85;;;1.90;;
76065;SDS011;64763;48.928;8.474;2023-12-28T11:49:24;3.53;;;2.10;;
76065;SDS011;64763;48.928;8.474;2023-12-28T11:51:53;2.92;;;2.00;;
76065;SDS011;64763;48.928;8.474;2023-12-28T11:54:20;3.22;;;2.13;;
76065;SDS011;64763;48.928;8.474;2023-12-28T11:56:46;4.40;;;1.90;;
76065;SDS011;64763;48.928;8.474;2023-12-28T11:59:11;4.45;;;2.28;;
76065;SDS011;64763;48.928;8.474;2023-12-28T12:01:36;3.63;;;2.03;;
76065;SDS011;64763;48.928;8.474;2023-12-28T12:04:02;3.47;;;1.83;;
76065;SDS011;64763;48.928;8.474;2023-12-28T12:06:27;2.83;;;2.03;;
76065;SDS011;64763;48.928;8.474;2023-12-28T12:08:54;3.85;;;2.08;;
76065;SDS011;64763;48.928;8.474;2023-12-28T12:11:19;2.90;;;1.88;;
76065;SDS011;64763;48.928;8.474;2023-12-28T12:13:45;4.32;;;2.22;;
76065;SDS011;64763;48.928;8.474;2023-12-28T12:16:10;3.55;;;2.17;;
76065;SDS011;64763;48.928;8.474;2023-12-28T12:18:38;3.10;;;1.88;;
76065;SDS011;64763;48.928;8.474;2023-12-28T12:21:03;5.32;;;2.13;;
76065;SDS011;64763;48.928;8.474;2023-12-28T12:23:30;3.53;;;1.88;;
76065;SDS011;64763;48.928;8.474;2023-12-28T12:25:56;5.20;;;2.33;;
76065;SDS011;64763;48.928;8.474;2023-12-28T12:28:21;3.40;;;2.20;;
76065;SDS011;64763;48.928;8.474;2023-12-28T12:30:53;3.80;;;2.10;;
76065;SDS011;64763;48.928;8.474;2023-12-28T12:33:20;3.45;;;2.00;;
76065;SDS011;64763;48.928;8.474;2023-12-28T12:35:46;3.72;;;1.98;;
76065;SDS011;64763;48.928;8.474;2023-12-28T12:38:12;3.10;;;2.00;;
76065;SDS011;64763;48.928;8.474;2023-12-28T12:40:37;3.22;;;2.30;;
76065;SDS011;64763;48.928;8.474;2023-12-28T12:43:03;3.33;;;2.15;;
76065;SDS011;64763;48.928;8.474;2023-12-28T12:45:28;3.08;;;1.85;;
76065;SDS011;64763;48.928;8.474;2023-12-28T12:47:53;3.10;;;2.10;;
76065;SDS011;64763;48.928;8.474;2023-12-28T12:50:19;3.85;;;1.75;;
76065;SDS011;64763;48.928;8.474;2023-12-28T12:52:44;3.15;;;1.80;;
76065;SDS011;64763;48.928;8.474;2023-12-28T12:55:13;3.88;;;2.08;;
76065;SDS011;64763;48.928;8.474;2023-12-28T12:57:39;3.35;;;1.70;;
76065;SDS011;64763;48.928;8.474;2023-12-28T13:00:05;4.65;;;1.63;;
76065;SDS011;64763;48.928;8.474;2023-12-28T13:02:34;3.63;;;2.00;;
76065;SDS011;64763;48.928;8.474;2023-12-28T13:05:01;4.53;;;1.85;;
76065;SDS011;64763;48.928;8.474;2023-12-28T13:07:27;2.67;;;1.90;;
76065;SDS011;64763;48.928;8.474;2023-12-28T13:09:52;2.90;;;1.65;;
76065;SDS011;64763;48.928;8.474;2023-12-28T13:12:17;6.53;;;3.33;;
76065;SDS011;64763;48.928;8.474;2023-12-28T13:14:43;2.40;;;1.70;;
76065;SDS011;64763;48.928;8.474;2023-12-28T13:17:09;3.05;;;2.10;;
76065;SDS011;64763;48.928;8.474;2023-12-28T13:19:35;4.38;;;2.10;;
76065;SDS011;64763;48.928;8.474;2023-12-28T13:22:01;2.83;;;2.00;;
76065;SDS011;64763;48.928;8.474;2023-12-28T13:24:26;5.22;;;2.10;;
76065;SDS011;64763;48.928;8.474;2023-12-28T13:26:51;2.83;;;2.13;;
76065;SDS011;64763;48.928;8.474;2023-12-28T13:29:17;5.82;;;2.17;;
76065;SDS011;64763;48.928;8.474;2023-12-28T13:31:42;3.00;;;1.85;;
76065;SDS011;64763;48.928;8.474;2023-12-28T13:34:09;3.17;;;2.03;;
76065;SDS011;64763;48.928;8.474;2023-12-28T13:36:35;2.83;;;1.92;;
76065;SDS011;64763;48.928;8.474;2023-12-28T13:39:00;3.53;;;2.25;;
76065;SDS011;64763;48.928;8.474;2023-12-28T13:41:26;2.75;;;1.60;;
76065;SDS011;64763;48.928;8.474;2023-12-28T13:43:54;3.40;;;2.30;;
76065;SDS011;64763;48.928;8.474;2023-12-28T13:46:25;3.30;;;2.53;;
76065;SDS011;64763;48.928;8.474;2023-12-28T13:48:50;3.08;;;2.13;;
76065;SDS011;64763;48.928;8.474;2023-12-28T13:51:16;4.93;;;2.15;;
76065;SDS011;64763;48.928;8.474;2023-12-28T13:53:41;5.40;;;2.70;;
76065;SDS011;64763;48.928;8.474;2023-12-28T13:56:06;3.95;;;2.42;;
76065;SDS011;64763;48.928;8.474;2023-12-28T13:58:33;4.25;;;2.35;;
76065;SDS011;64763;48.928;8.474;2023-12-28T14:00:59;2.95;;;1.90;;
76065;SDS011;64763;48.928;8.474;2023-12-28T14:03:24;3.53;;;2.50;;
76065;SDS011;64763;48.928;8.474;2023-12-28T14:05:50;4.40;;;2.17;;
76065;SDS011;64763;48.928;8.474;2023-12-28T14:08:15;3.10;;;1.92;;
76065;SDS011;64763;48.928;8.474;2023-12-28T14:10:41;3.60;;;2.08;;
76065;SDS011;64763;48.928;8.474;2023-12-28T14:13:06;3.67;;;2.05;;
76065;SDS011;64763;48.928;8.474;2023-12-28T14:15:31;5.28;;;2.60;;
76065;SDS011;64763;48.928;8.474;2023-12-28T14:17:57;3.25;;;2.25;;
76065;SDS011;64763;48.928;8.474;2023-12-28T14:20:22;3.28;;;2.22;;
76065;SDS011;64763;48.928;8.474;2023-12-28T14:22:47;4.60;;;2.50;;
76065;SDS011;64763;48.928;8.474;2023-12-28T14:25:13;4.07;;;2.55;;
76065;SDS011;64763;48.928;8.474;2023-12-28T14:27:39;4.47;;;2.80;;
76065;SDS011;64763;48.928;8.474;2023-12-28T14:30:05;3.83;;;2.50;;
76065;SDS011;64763;48.928;8.474;2023-12-28T14:32:36;4.95;;;2.70;;
76065;SDS011;64763;48.928;8.474;2023-12-28T14:35:02;4.18;;;2.72;;
76065;SDS011;64763;48.928;8.474;2023-12-28T14:37:30;5.00;;;2.53;;
76065;SDS011;64763;48.928;8.474;2023-12-28T14:39:56;7.45;;;4.07;;
76065;SDS011;64763;48.928;8.474;2023-12-28T14:42:21;3.65;;;2.20;;
76065;SDS011;64763;48.928;8.474;2023-12-28T14:44:46;4.53;;;2.50;;
76065;SDS011;64763;48.928;8.474;2023-12-28T14:47:16;5.00;;;2.30;;
76065;SDS011;64763;48.928;8.474;2023-12-28T14:49:41;4.18;;;2.65;;
76065;SDS011;64763;48.928;8.474;2023-12-28T14:52:06;3.38;;;2.45;;
76065;SDS011;64763;48.928;8.474;2023-12-28T14:54:32;4.10;;;2.85;;